Time;durP1;ratioP1;P1;durP2;ratioP2;P2;SDS_P1;SDS_P2;PMS_P1;PMS_P2;Temp;Humidity;BMP_temperature;BMP_pressure;BME280_temperature;BME280_humidity;BME280_pressure;Samples;Min_cycle;Max_cycle;Signal;HPM_P1;HPM_P2
2023/07/10 00:01:29;;;;;;;8.88;5.20;;;;;;;;;;5074104;28;20611;-58
2023/07/10 00:03:55;;;;;;;9.27;5.75;;;;;;;;;;5074250;28;20063;-58
2023/07/10 00:06:22;;;;;;;9.23;5.32;;;;;;;;;;5074520;28;20100;-55
2023/07/10 00:08:48;;;;;;;9.05;5.85;;;;;;;;;;5073085;28;20082;-58
2023/07/10 00:11:16;;;;;;;8.98;5.15;;;;;;;;;;5074272;28;20024;-58
2023/07/10 00:13:42;;;;;;;9.50;5.70;;;;;;;;;;5074519;28;20532;-59
2023/07/10 00:16:13;;;;;;;11.55;6.60;;;;;;;;;;5073902;28;20431;-58
2023/07/10 00:18:39;;;;;;;9.25;5.53;;;;;;;;;;5074284;28;20119;-59
2023/07/10 00:21:05;;;;;;;11.60;6.45;;;;;;;;;;5074163;28;20527;-60
2023/07/10 00:23:31;;;;;;;10.00;5.80;;;;;;;;;;5074141;28;20070;-55
2023/07/10 00:25:57;;;;;;;9.80;5.72;;;;;;;;;;5073858;28;20059;-55
2023/07/10 00:28:23;;;;;;;9.55;5.72;;;;;;;;;;5074069;28;20039;-58
2023/07/10 00:30:50;;;;;;;7.85;4.70;;;;;;;;;;5074131;28;20445;-59
2023/07/10 00:33:17;;;;;;;8.45;5.05;;;;;;;;;;5073857;28;20055;-57
2023/07/10 00:35:43;;;;;;;8.68;5.28;;;;;;;;;;5073635;28;20396;-53
2023/07/10 00:38:20;;;;;;;7.85;4.70;;;;;;;;;;5073794;28;20120;-57
2023/07/10 00:40:46;;;;;;;8.98;5.57;;;;;;;;;;5073627;28;20029;-59
2023/07/10 00:43:41;;;;;;;9.75;6.20;;;;;;;;;;5073742;28;20389;-59
2023/07/10 00:46:29;;;;;;;8.80;5.00;;;;;;;;;;5063337;28;20059;-59
2023/07/10 00:49:03;;;;;;;9.85;5.93;;;;;;;;;;5072235;28;20024;-57
2023/07/10 00:51:32;;;;;;;9.65;5.82;;;;;;;;;;5072274;28;20032;-59
2023/07/10 00:53:58;;;;;;;10.30;5.60;;;;;;;;;;5073327;28;20024;-58
2023/07/10 00:56:26;;;;;;;11.20;6.10;;;;;;;;;;5073461;28;20070;-57
2023/07/10 00:58:52;;;;;;;9.88;5.45;;;;;;;;;;5073321;28;20053;-59
2023/07/10 01:01:20;;;;;;;9.20;5.28;;;;;;;;;;5073459;28;20025;-53
2023/07/10 01:03:47;;;;;;;8.80;5.22;;;;;;;;;;5073390;28;20020;-55
2023/07/10 01:06:15;;;;;;;11.20;6.43;;;;;;;;;;5072022;28;20050;-56
2023/07/10 01:08:47;;;;;;;16.27;6.57;;;;;;;;;;5071871;28;20024;-58
2023/07/10 01:11:13;;;;;;;8.05;4.82;;;;;;;;;;5073186;28;20111;-59
2023/07/10 01:13:42;;;;;;;9.98;5.93;;;;;;;;;;5073157;28;20063;-58
2023/07/10 01:16:08;;;;;;;9.43;5.45;;;;;;;;;;5072953;28;20036;-57
2023/07/10 01:18:34;;;;;;;9.57;5.57;;;;;;;;;;5072929;28;20082;-56
2023/07/10 01:21:06;;;;;;;11.40;5.80;;;;;;;;;;5072961;28;20025;-57
2023/07/10 01:23:32;;;;;;;9.30;5.57;;;;;;;;;;5073014;28;20081;-56
2023/07/10 01:26:00;;;;;;;9.93;5.93;;;;;;;;;;5071375;28;20033;-58
2023/07/10 01:28:26;;;;;;;9.90;6.13;;;;;;;;;;5072752;28;20491;-56
2023/07/10 01:30:54;;;;;;;9.38;5.60;;;;;;;;;;5071543;28;20303;-57
2023/07/10 01:33:22;;;;;;;11.10;6.45;;;;;;;;;;5072860;28;20437;-59
2023/07/10 01:35:51;;;;;;;9.48;5.60;;;;;;;;;;5072489;28;20024;-59
2023/07/10 01:38:17;;;;;;;9.90;5.90;;;;;;;;;;5072529;28;20024;-58
2023/07/10 01:40:46;;;;;;;10.52;6.40;;;;;;;;;;5072414;28;20037;-59
2023/07/10 01:43:12;;;;;;;8.82;5.20;;;;;;;;;;5071317;28;20020;-59
2023/07/10 01:45:46;;;;;;;8.43;5.07;;;;;;;;;;5072244;28;20381;-55
2023/07/10 01:48:13;;;;;;;9.27;5.40;;;;;;;;;;5072411;28;20043;-59
2023/07/10 01:50:39;;;;;;;8.52;5.03;;;;;;;;;;5072316;28;20024;-58
2023/07/10 01:53:06;;;;;;;11.05;6.05;;;;;;;;;;5072494;28;20051;-56
2023/07/10 01:55:38;;;;;;;10.95;6.30;;;;;;;;;;5072130;28;20110;-57
2023/07/10 01:58:04;;;;;;;8.43;5.13;;;;;;;;;;5072404;28;20489;-58
2023/07/10 02:00:30;;;;;;;9.70;5.95;;;;;;;;;;5071936;28;20104;-56
2023/07/10 02:02:56;;;;;;;10.20;6.22;;;;;;;;;;5072322;28;20416;-59
2023/07/10 02:05:22;;;;;;;9.60;5.78;;;;;;;;;;5071865;28;20107;-57
2023/07/10 02:07:48;;;;;;;9.13;5.40;;;;;;;;;;5072260;28;20021;-59
2023/07/10 02:10:14;;;;;;;10.60;6.75;;;;;;;;;;5072077;28;20059;-58
2023/07/10 02:12:39;;;;;;;9.20;5.43;;;;;;;;;;5071918;28;20036;-59
2023/07/10 02:15:06;;;;;;;9.13;5.90;;;;;;;;;;5071637;28;20040;-56
2023/07/10 02:17:32;;;;;;;8.43;5.03;;;;;;;;;;5071605;28;20021;-56
2023/07/10 02:19:58;;;;;;;8.50;5.47;;;;;;;;;;5071749;28;20032;-59
2023/07/10 02:22:24;;;;;;;9.02;5.25;;;;;;;;;;5072001;28;20031;-58
2023/07/10 02:24:50;;;;;;;10.48;5.70;;;;;;;;;;5070379;28;20077;-56
2023/07/10 02:27:16;;;;;;;8.98;5.53;;;;;;;;;;5070548;28;20384;-59
2023/07/10 02:29:41;;;;;;;8.63;5.32;;;;;;;;;;5071676;28;20105;-59
2023/07/10 02:32:08;;;;;;;8.95;5.90;;;;;;;;;;5070380;28;20533;-59
2023/07/10 02:34:34;;;;;;;11.30;6.30;;;;;;;;;;5071486;28;20465;-59
2023/07/10 02:37:00;;;;;;;9.68;5.47;;;;;;;;;;5071796;28;20024;-59
2023/07/10 02:39:26;;;;;;;8.88;5.35;;;;;;;;;;5071534;28;20571;-60
2023/07/10 02:41:51;;;;;;;10.38;5.78;;;;;;;;;;5071347;28;20020;-57
2023/07/10 02:44:17;;;;;;;8.20;4.93;;;;;;;;;;5071478;28;20047;-60
2023/07/10 02:46:43;;;;;;;9.77;6.68;;;;;;;;;;5071588;28;20467;-59
2023/07/10 02:49:09;;;;;;;10.02;6.28;;;;;;;;;;5071579;28;20091;-60
2023/07/10 02:51:35;;;;;;;9.57;5.63;;;;;;;;;;5071559;28;20053;-60
2023/07/10 02:54:08;;;;;;;9.07;5.38;;;;;;;;;;5071350;28;20024;-56
2023/07/10 02:56:34;;;;;;;10.93;6.88;;;;;;;;;;5071635;28;20024;-60
2023/07/10 02:59:00;;;;;;;9.57;5.75;;;;;;;;;;5071237;28;20034;-60
2023/07/10 03:01:26;;;;;;;9.00;5.30;;;;;;;;;;5071454;28;20400;-59
2023/07/10 03:03:52;;;;;;;9.38;5.50;;;;;;;;;;5071276;28;20028;-60
2023/07/10 03:06:20;;;;;;;17.55;5.97;;;;;;;;;;5071112;28;20020;-59
2023/07/10 03:08:47;;;;;;;8.15;4.93;;;;;;;;;;5071136;28;20717;-60
2023/07/10 03:11:14;;;;;;;14.60;6.65;;;;;;;;;;5071230;28;20020;-59
2023/07/10 03:13:40;;;;;;;9.50;5.80;;;;;;;;;;5071274;28;20133;-59
2023/07/10 03:16:08;;;;;;;9.50;5.60;;;;;;;;;;5071098;28;20100;-58
2023/07/10 03:18:34;;;;;;;9.90;6.30;;;;;;;;;;5071113;28;20047;-59
2023/07/10 03:21:00;;;;;;;10.88;6.55;;;;;;;;;;5071021;28;20029;-59
2023/07/10 03:23:26;;;;;;;9.52;6.20;;;;;;;;;;5071124;28;20481;-60
2023/07/10 03:25:52;;;;;;;9.15;5.47;;;;;;;;;;5069708;28;20035;-59
2023/07/10 03:28:18;;;;;;;9.68;5.82;;;;;;;;;;5071192;28;20484;-59
2023/07/10 03:30:44;;;;;;;12.70;8.18;;;;;;;;;;5074378;28;20442;-60
2023/07/10 03:33:14;;;;;;;9.23;5.50;;;;;;;;;;5075020;28;20036;-59
2023/07/10 03:35:41;;;;;;;9.00;5.25;;;;;;;;;;5074790;28;20024;-58
2023/07/10 03:38:07;;;;;;;9.52;5.55;;;;;;;;;;5074709;28;20024;-58
2023/07/10 03:40:33;;;;;;;10.75;6.10;;;;;;;;;;5074538;28;20090;-60
2023/07/10 03:42:59;;;;;;;8.65;5.65;;;;;;;;;;5074890;28;20025;-60
2023/07/10 03:45:25;;;;;;;7.55;4.45;;;;;;;;;;5074503;28;20131;-58
2023/07/10 03:47:51;;;;;;;7.85;4.65;;;;;;;;;;5074536;28;20025;-62
2023/07/10 03:50:18;;;;;;;15.75;6.50;;;;;;;;;;5074711;28;20372;-57
2023/07/10 03:52:44;;;;;;;8.70;5.28;;;;;;;;;;5074582;28;20065;-60
2023/07/10 03:55:10;;;;;;;10.93;6.68;;;;;;;;;;5074149;28;20544;-61
2023/07/10 03:57:36;;;;;;;9.88;6.68;;;;;;;;;;5073199;28;20142;-60
2023/07/10 04:00:04;;;;;;;11.00;7.05;;;;;;;;;;5074098;28;20074;-60
2023/07/10 04:02:30;;;;;;;9.48;6.35;;;;;;;;;;5074364;28;20040;-59
2023/07/10 04:04:56;;;;;;;8.70;5.20;;;;;;;;;;5074293;28;20029;-57
2023/07/10 04:07:22;;;;;;;8.82;5.25;;;;;;;;;;5074322;28;20024;-59
2023/07/10 04:09:48;;;;;;;10.10;5.80;;;;;;;;;;5074041;28;20023;-61
2023/07/10 04:12:14;;;;;;;9.00;5.30;;;;;;;;;;5073017;28;20020;-60
2023/07/10 04:14:40;;;;;;;10.35;6.70;;;;;;;;;;5073935;28;20477;-60
2023/07/10 04:17:06;;;;;;;13.40;5.97;;;;;;;;;;5074070;28;20473;-58
2023/07/10 04:19:32;;;;;;;8.77;5.20;;;;;;;;;;5073988;28;20480;-57
2023/07/10 04:21:58;;;;;;;9.38;5.65;;;;;;;;;;5073931;28;20071;-60
2023/07/10 04:24:24;;;;;;;9.32;5.65;;;;;;;;;;5072356;28;20021;-60
2023/07/10 04:26:51;;;;;;;8.07;4.78;;;;;;;;;;5074091;28;20473;-59
2023/07/10 04:29:19;;;;;;;10.48;5.90;;;;;;;;;;5073952;28;20519;-61
2023/07/10 04:31:45;;;;;;;10.57;5.72;;;;;;;;;;5074210;28;20028;-61
2023/07/10 04:34:11;;;;;;;9.30;5.88;;;;;;;;;;5073563;28;20404;-59
2023/07/10 04:36:37;;;;;;;9.50;5.55;;;;;;;;;;5073787;28;20035;-59
2023/07/10 04:39:03;;;;;;;10.77;6.65;;;;;;;;;;5073615;28;20020;-60
2023/07/10 04:41:29;;;;;;;8.43;4.95;;;;;;;;;;5073451;28;20035;-60
2023/07/10 04:43:55;;;;;;;9.32;5.55;;;;;;;;;;5073415;28;20028;-61
2023/07/10 04:46:21;;;;;;;10.57;6.35;;;;;;;;;;5072287;28;20021;-60
2023/07/10 04:48:48;;;;;;;9.20;5.63;;;;;;;;;;5073219;28;20439;-57
2023/07/10 04:51:15;;;;;;;10.30;6.35;;;;;;;;;;5073342;28;20518;-55
2023/07/10 04:53:41;;;;;;;8.77;5.30;;;;;;;;;;5073412;28;20028;-59
2023/07/10 04:56:10;;;;;;;9.40;5.40;;;;;;;;;;5073053;28;20025;-59
2023/07/10 04:58:36;;;;;;;;;;;;;;;;;;5073497;28;20415;-59
2023/07/10 05:01:02;;;;;;;8.45;4.88;;;;;;;;;;5072005;28;19934;-59
2023/07/10 05:03:28;;;;;;;9.98;5.63;;;;;;;;;;5073565;28;20021;-59
2023/07/10 05:05:54;;;;;;;9.65;5.85;;;;;;;;;;5073202;28;20032;-59
2023/07/10 05:08:23;;;;;;;9.02;5.32;;;;;;;;;;5073200;28;20028;-59
2023/07/10 05:10:54;;;;;;;9.88;6.00;;;;;;;;;;5073403;28;20021;-59
2023/07/10 05:13:20;;;;;;;14.18;6.18;;;;;;;;;;5073259;28;20088;-59
2023/07/10 05:15:47;;;;;;;10.27;6.25;;;;;;;;;;5072882;28;20029;-56
2023/07/10 05:18:13;;;;;;;10.98;8.15;;;;;;;;;;5072770;28;20035;-60
2023/07/10 05:20:39;;;;;;;9.68;5.97;;;;;;;;;;5071265;28;20032;-58
2023/07/10 05:23:06;;;;;;;11.38;6.80;;;;;;;;;;5072403;28;20459;-58
2023/07/10 05:25:32;;;;;;;29.70;19.13;;;;;;;;;;5072258;28;20370;-60
2023/07/10 05:27:58;;;;;;;30.40;18.98;;;;;;;;;;5072432;28;20108;-59
2023/07/10 05:30:24;;;;;;;29.92;18.30;;;;;;;;;;5072628;28;20020;-60
2023/07/10 05:32:51;;;;;;;37.38;20.45;;;;;;;;;;5072432;28;20029;-60
2023/07/10 05:35:17;;;;;;;30.00;19.00;;;;;;;;;;5071998;28;20032;-61
2023/07/10 05:37:43;;;;;;;36.17;19.23;;;;;;;;;;5072508;28;20035;-59
2023/07/10 05:40:09;;;;;;;28.63;20.10;;;;;;;;;;5071252;28;20031;-60
2023/07/10 05:42:35;;;;;;;25.33;17.50;;;;;;;;;;5072196;28;20658;-61
2023/07/10 05:45:01;;;;;;;28.15;16.30;;;;;;;;;;5071991;28;20017;-61
2023/07/10 05:47:27;;;;;;;24.23;15.88;;;;;;;;;;5072350;28;20489;-61
2023/07/10 05:49:53;;;;;;;23.92;16.02;;;;;;;;;;5072122;28;20024;-58
2023/07/10 05:52:19;;;;;;;29.00;17.40;;;;;;;;;;5071828;28;20616;-59
2023/07/10 05:54:45;;;;;;;28.45;17.38;;;;;;;;;;5071933;28;20020;-58
2023/07/10 05:57:11;;;;;;;26.70;17.65;;;;;;;;;;5071956;28;20032;-58
2023/07/10 05:59:46;;;;;;;23.85;16.25;;;;;;;;;;5071868;28;20033;-62
2023/07/10 06:02:12;;;;;;;23.83;14.68;;;;;;;;;;5072135;28;20017;-57
2023/07/10 06:04:38;;;;;;;23.83;15.98;;;;;;;;;;5071573;28;20035;-61
2023/07/10 06:07:05;;;;;;;23.42;15.75;;;;;;;;;;5071777;28;20107;-60
2023/07/10 06:09:31;;;;;;;23.83;13.32;;;;;;;;;;5071842;28;20092;-60
2023/07/10 06:11:57;;;;;;;27.60;15.27;;;;;;;;;;5071769;28;20553;-60
2023/07/10 06:14:23;;;;;;;23.80;15.38;;;;;;;;;;5071546;28;20111;-59
2023/07/10 06:16:49;;;;;;;23.92;14.75;;;;;;;;;;5071697;28;20025;-61
2023/07/10 06:19:16;;;;;;;23.73;15.77;;;;;;;;;;5071605;28;20037;-60
2023/07/10 06:21:42;;;;;;;25.17;14.65;;;;;;;;;;5071747;28;20459;-59
2023/07/10 06:24:09;;;;;;;23.65;13.40;;;;;;;;;;5071489;28;20077;-59
2023/07/10 06:26:35;;;;;;;21.02;14.43;;;;;;;;;;5071502;28;20477;-58
2023/07/10 06:29:00;;;;;;;24.05;13.55;;;;;;;;;;5064564;28;20032;-61
2023/07/10 06:31:26;;;;;;;23.08;13.63;;;;;;;;;;5071218;28;20493;-61
2023/07/10 06:33:52;;;;;;;23.67;12.25;;;;;;;;;;5069955;28;20024;-61
2023/07/10 06:36:18;;;;;;;21.25;13.30;;;;;;;;;;5064007;28;20511;-59
2023/07/10 06:38:44;;;;;;;22.10;13.23;;;;;;;;;;5051323;28;20040;-59
2023/07/10 06:41:12;;;;;;;18.95;11.77;;;;;;;;;;5051105;28;20037;-60
2023/07/10 06:43:38;;;;;;;22.25;12.70;;;;;;;;;;5051091;28;20063;-61
2023/07/10 06:46:04;;;;;;;21.10;12.27;;;;;;;;;;5068052;28;20017;-61
2023/07/10 06:48:30;;;;;;;21.77;12.68;;;;;;;;;;5071339;28;20024;-61
2023/07/10 06:50:56;;;;;;;20.48;12.70;;;;;;;;;;5071318;28;20100;-59
2023/07/10 06:53:23;;;;;;;22.63;12.55;;;;;;;;;;5071211;28;20032;-61
2023/07/10 06:55:53;;;;;;;21.52;11.93;;;;;;;;;;5070944;28;20060;-61
2023/07/10 06:58:19;;;;;;;21.75;12.13;;;;;;;;;;5071228;28;20480;-60
2023/07/10 07:00:45;;;;;;;21.55;10.93;;;;;;;;;;5070955;28;20035;-59
2023/07/10 07:03:11;;;;;;;20.45;10.15;;;;;;;;;;5053676;28;20021;-61
2023/07/10 07:05:37;;;;;;;18.67;9.57;;;;;;;;;;5054758;28;20025;-60
2023/07/10 07:08:03;;;;;;;18.58;9.85;;;;;;;;;;5055519;28;20373;-60
2023/07/10 07:10:32;;;;;;;18.67;9.38;;;;;;;;;;5054953;28;20100;-61
2023/07/10 07:12:58;;;;;;;19.30;9.07;;;;;;;;;;5055118;28;20021;-60
2023/07/10 07:15:24;;;;;;;17.02;8.60;;;;;;;;;;5054961;28;20036;-61
2023/07/10 07:17:50;;;;;;;19.83;8.75;;;;;;;;;;5055062;28;20021;-61
2023/07/10 07:20:17;;;;;;;17.23;8.20;;;;;;;;;;5054889;28;20519;-61
2023/07/10 07:22:43;;;;;;;17.90;8.23;;;;;;;;;;5053602;28;20087;-61
2023/07/10 07:25:09;;;;;;;18.83;8.88;;;;;;;;;;5054547;28;20033;-61
2023/07/10 07:27:35;;;;;;;19.00;8.25;;;;;;;;;;5054888;28;20052;-60
2023/07/10 07:30:05;;;;;;;17.00;8.30;;;;;;;;;;5072025;28;20035;-56
2023/07/10 07:32:31;;;;;;;16.55;8.25;;;;;;;;;;5074776;28;20025;-59
2023/07/10 07:34:57;;;;;;;18.05;7.82;;;;;;;;;;5072902;28;20021;-61
2023/07/10 07:37:23;;;;;;;18.65;8.35;;;;;;;;;;5074775;28;20470;-62
2023/07/10 07:39:49;;;;;;;19.00;8.63;;;;;;;;;;5074544;28;20021;-62
2023/07/10 07:42:15;;;;;;;17.65;8.00;;;;;;;;;;5073128;28;20126;-62
2023/07/10 07:44:42;;;;;;;17.70;8.15;;;;;;;;;;5073998;28;20047;-62
2023/07/10 07:47:08;;;;;;;18.67;8.43;;;;;;;;;;5074484;28;20059;-61
2023/07/10 07:49:34;;;;;;;17.10;8.10;;;;;;;;;;5074431;28;20430;-62
2023/07/10 07:52:00;;;;;;;16.33;8.20;;;;;;;;;;5074627;28;20032;-61
2023/07/10 07:54:26;;;;;;;19.60;7.88;;;;;;;;;;5074149;28;20194;-56
2023/07/10 07:56:52;;;;;;;15.48;7.40;;;;;;;;;;5074648;28;20043;-58
2023/07/10 07:59:21;;;;;;;16.25;7.85;;;;;;;;;;5074225;28;20032;-57
2023/07/10 08:01:47;;;;;;;16.25;8.32;;;;;;;;;;5074198;28;20037;-59
2023/07/10 08:04:13;;;;;;;16.63;8.32;;;;;;;;;;5073923;28;20566;-59
2023/07/10 08:06:39;;;;;;;16.02;7.53;;;;;;;;;;5074010;28;20046;-57
2023/07/10 08:09:05;;;;;;;17.55;8.55;;;;;;;;;;5073903;28;20017;-59
2023/07/10 08:11:31;;;;;;;17.20;8.75;;;;;;;;;;5073860;28;20669;-57
2023/07/10 08:13:57;;;;;;;17.75;8.52;;;;;;;;;;5073400;28;20020;-58
2023/07/10 08:16:23;;;;;;;16.63;8.48;;;;;;;;;;5072932;28;20480;-57
2023/07/10 08:18:50;;;;;;;16.20;7.80;;;;;;;;;;5073581;28;20060;-56
2023/07/10 08:21:16;;;;;;;16.38;8.60;;;;;;;;;;5073828;28;20066;-55
2023/07/10 08:23:42;;;;;;;18.27;8.90;;;;;;;;;;5073607;28;20111;-58
2023/07/10 08:26:08;;;;;;;19.38;8.63;;;;;;;;;;5073251;28;20029;-59
2023/07/10 08:28:34;;;;;;;18.25;8.52;;;;;;;;;;5073174;28;20024;-59
2023/07/10 08:31:01;;;;;;;16.77;8.50;;;;;;;;;;5073347;28;20500;-57
2023/07/10 08:33:27;;;;;;;15.63;7.63;;;;;;;;;;5073287;28;20028;-57
2023/07/10 08:36:01;;;;;;;16.90;8.13;;;;;;;;;;5071985;28;20028;-59
2023/07/10 08:38:27;;;;;;;17.25;8.73;;;;;;;;;;5073258;28;20117;-59
2023/07/10 08:40:55;;;;;;;16.58;8.00;;;;;;;;;;5072813;28;20072;-55
2023/07/10 08:43:21;;;;;;;;;;;;;;;;;;5061776;28;20027;-58
2023/07/10 08:45:47;;;;;;;17.25;8.25;;;;;;;;;;5054995;28;19987;-58
2023/07/10 08:48:21;;;;;;;16.33;7.78;;;;;;;;;;5053112;28;20107;-56
2023/07/10 08:50:48;;;;;;;16.00;7.95;;;;;;;;;;5053082;28;20052;-58
2023/07/10 08:53:16;;;;;;;15.20;7.80;;;;;;;;;;5052824;28;20036;-59
2023/07/10 08:55:42;;;;;;;17.05;8.52;;;;;;;;;;5052535;28;20020;-59
2023/07/10 08:58:14;;;;;;;15.98;8.25;;;;;;;;;;5052857;28;20029;-61
2023/07/10 09:00:42;;;;;;;19.73;8.90;;;;;;;;;;5052366;28;20419;-58
2023/07/10 09:03:14;;;;;;;17.90;8.60;;;;;;;;;;5052801;28;20055;-58
2023/07/10 09:05:40;;;;;;;16.05;8.38;;;;;;;;;;5052501;28;20255;-58
2023/07/10 09:08:10;;;;;;;16.63;8.23;;;;;;;;;;5052419;28;20086;-57
2023/07/10 09:10:41;;;;;;;17.58;8.98;;;;;;;;;;5069624;28;20043;-58
2023/07/10 09:13:09;;;;;;;17.55;8.20;;;;;;;;;;5072574;28;20078;-57
2023/07/10 09:15:36;;;;;;;17.98;8.10;;;;;;;;;;5072073;28;20032;-58
2023/07/10 09:18:02;;;;;;;17.35;8.48;;;;;;;;;;5072761;28;20427;-59
2023/07/10 09:20:28;;;;;;;16.92;8.52;;;;;;;;;;5072495;28;20025;-61
2023/07/10 09:23:02;;;;;;;17.80;9.13;;;;;;;;;;5070402;28;20115;-61
2023/07/10 09:25:28;;;;;;;16.67;8.93;;;;;;;;;;5064693;28;20036;-60
2023/07/10 09:27:56;;;;;;;15.93;8.77;;;;;;;;;;5071570;28;20029;-61
2023/07/10 09:30:34;;;;;;;14.40;8.10;;;;;;;;;;5071980;28;20020;-61
2023/07/10 09:33:05;;;;;;;15.48;9.07;;;;;;;;;;5052222;28;20111;-59
2023/07/10 09:35:31;;;;;;;14.65;8.20;;;;;;;;;;5052246;28;20033;-59
2023/07/10 09:37:57;;;;;;;16.90;9.13;;;;;;;;;;5052425;28;20099;-60
2023/07/10 09:40:39;;;;;;;17.60;8.70;;;;;;;;;;5052286;28;20032;-61
2023/07/10 09:43:15;;;;;;;15.70;8.63;;;;;;;;;;5052305;28;20028;-60
2023/07/10 09:45:43;;;;;;;15.10;8.90;;;;;;;;;;5070361;28;20451;-61
2023/07/10 09:48:14;;;;;;;17.02;9.10;;;;;;;;;;5072238;28;20086;-58
2023/07/10 09:50:40;;;;;;;15.20;8.70;;;;;;;;;;5072756;28;20389;-59
2023/07/10 09:53:21;;;;;;;16.48;8.27;;;;;;;;;;5071429;28;20484;-59
2023/07/10 09:55:47;;;;;;;16.42;9.00;;;;;;;;;;5071582;28;20033;-59
2023/07/10 09:58:13;;;;;;;15.27;8.40;;;;;;;;;;5071706;28;20036;-59
2023/07/10 10:00:43;;;;;;;15.43;8.55;;;;;;;;;;5071651;28;20506;-57
2023/07/10 10:03:16;;;;;;;15.93;8.70;;;;;;;;;;5070536;28;20017;-54
2023/07/10 10:05:42;;;;;;;14.35;8.00;;;;;;;;;;5071480;28;20021;-60
2023/07/10 10:08:17;;;;;;;15.50;8.63;;;;;;;;;;5071490;28;20481;-58
2023/07/10 10:10:43;;;;;;;16.80;9.10;;;;;;;;;;5070255;28;20091;-59
2023/07/10 10:13:23;;;;;;;16.75;8.70;;;;;;;;;;5071715;28;20024;-59
2023/07/10 10:15:52;;;;;;;15.88;8.90;;;;;;;;;;5072015;28;20101;-62
2023/07/10 10:18:37;;;;;;;15.77;9.00;;;;;;;;;;5072037;28;20424;-60
2023/07/10 10:21:03;;;;;;;15.40;8.68;;;;;;;;;;5071902;28;20048;-61
2023/07/10 10:23:34;;;;;;;15.98;9.15;;;;;;;;;;5071668;28;20042;-55
2023/07/10 10:26:08;;;;;;;15.55;9.43;;;;;;;;;;5071469;28;20472;-60
2023/07/10 10:28:55;;;;;;;15.20;8.95;;;;;;;;;;5071241;28;20025;-54
2023/07/10 10:31:24;;;;;;;17.58;9.20;;;;;;;;;;5050072;28;20039;-58
2023/07/10 10:33:50;;;;;;;16.75;9.68;;;;;;;;;;5071347;28;20067;-61
2023/07/10 10:36:16;;;;;;;16.85;9.65;;;;;;;;;;5071079;28;20024;-63
2023/07/10 10:38:54;;;;;;;15.48;9.05;;;;;;;;;;5071031;28;20155;-62
2023/07/10 10:41:29;;;;;;;15.55;9.35;;;;;;;;;;5070105;28;20048;-63
2023/07/10 10:44:00;;;;;;;16.60;10.02;;;;;;;;;;5071234;28;20388;-63
2023/07/10 10:46:41;;;;;;;16.52;10.15;;;;;;;;;;5071180;28;20043;-62
2023/07/10 10:49:25;;;;;;;17.45;10.50;;;;;;;;;;5071379;28;20468;-61
2023/07/10 10:51:51;;;;;;;16.73;9.93;;;;;;;;;;5071548;28;20028;-61
2023/07/10 10:54:17;;;;;;;16.55;9.68;;;;;;;;;;5071152;28;20554;-62
2023/07/10 10:56:46;;;;;;;18.08;10.35;;;;;;;;;;5071303;28;20472;-60
2023/07/10 10:59:30;;;;;;;15.25;10.38;;;;;;;;;;5071273;28;20037;-63
2023/07/10 11:01:56;;;;;;;15.55;10.23;;;;;;;;;;5069814;28;20051;-63
2023/07/10 11:04:26;;;;;;;16.10;10.48;;;;;;;;;;5070841;28;20445;-63
2023/07/10 11:06:59;;;;;;;15.95;10.35;;;;;;;;;;5070521;28;20031;-60
2023/07/10 11:09:35;;;;;;;16.90;10.30;;;;;;;;;;5064436;28;20020;-62
2023/07/10 11:12:03;;;;;;;16.00;10.25;;;;;;;;;;5059426;28;20031;-61
2023/07/10 11:14:29;;;;;;;15.57;9.75;;;;;;;;;;5070589;28;20024;-61
2023/07/10 11:16:56;;;;;;;18.15;10.75;;;;;;;;;;5070818;28;20032;-64
2023/07/10 11:19:27;;;;;;;17.13;11.00;;;;;;;;;;5070960;28;20135;-64
2023/07/10 11:21:53;;;;;;;16.60;10.18;;;;;;;;;;5068546;28;20036;-63
2023/07/10 11:24:25;;;;;;;16.25;11.20;;;;;;;;;;5067893;28;20029;-63
2023/07/10 11:26:52;;;;;;;16.00;10.60;;;;;;;;;;5062316;28;20060;-62
2023/07/10 11:29:18;;;;;;;15.85;10.85;;;;;;;;;;5068480;28;20041;-63
2023/07/10 11:31:52;;;;;;;15.63;11.05;;;;;;;;;;5048188;28;20025;-63
2023/07/10 11:34:24;;;;;;;17.15;11.38;;;;;;;;;;5050518;28;20021;-63
2023/07/10 11:36:50;;;;;;;20.17;11.57;;;;;;;;;;5051115;28;20594;-63
2023/07/10 11:39:16;;;;;;;16.63;10.90;;;;;;;;;;5049412;28;20029;-62
2023/07/10 11:41:42;;;;;;;17.25;11.40;;;;;;;;;;5050751;28;20477;-63
2023/07/10 11:44:15;;;;;;;18.63;11.20;;;;;;;;;;5050600;28;20032;-63
2023/07/10 11:47:00;;;;;;;16.77;11.00;;;;;;;;;;5050051;28;20028;-63
2023/07/10 11:49:27;;;;;;;16.00;11.50;;;;;;;;;;5050685;28;20033;-63
2023/07/10 11:52:11;;;;;;;16.83;12.35;;;;;;;;;;5054236;28;20036;-62
2023/07/10 11:54:38;;;;;;;18.27;12.02;;;;;;;;;;5053995;28;20511;-63
2023/07/10 11:57:07;;;;;;;16.17;11.27;;;;;;;;;;5053173;28;20086;-64
2023/07/10 11:59:46;;;;;;;18.73;12.85;;;;;;;;;;5054231;28;20064;-64
2023/07/10 12:02:32;;;;;;;16.73;12.07;;;;;;;;;;5055393;28;20053;-62
2023/07/10 12:04:59;;;;;;;15.98;12.20;;;;;;;;;;5049890;28;20108;-64
2023/07/10 12:07:25;;;;;;;17.05;11.80;;;;;;;;;;5058438;28;20025;-63
2023/07/10 12:09:57;;;;;;;17.30;12.40;;;;;;;;;;5065167;28;20157;-64
2023/07/10 12:12:23;;;;;;;16.48;11.80;;;;;;;;;;5056771;28;20474;-62
2023/07/10 12:14:52;;;;;;;19.95;12.30;;;;;;;;;;5066208;28;20028;-62
2023/07/10 12:17:18;;;;;;;16.52;11.88;;;;;;;;;;5063383;28;20028;-62
2023/07/10 12:19:45;;;;;;;16.88;11.10;;;;;;;;;;5062624;28;20047;-63
2023/07/10 12:22:14;;;;;;;16.60;11.68;;;;;;;;;;5065805;28;20479;-61
2023/07/10 12:24:48;;;;;;;18.48;11.75;;;;;;;;;;5070253;28;20077;-62
2023/07/10 12:27:14;;;;;;;18.15;12.10;;;;;;;;;;5073053;28;20107;-59
2023/07/10 12:29:48;;;;;;;16.90;11.88;;;;;;;;;;5065540;28;20112;-62
2023/07/10 12:32:14;;;;;;;16.00;11.80;;;;;;;;;;5073326;28;20166;-60
2023/07/10 12:34:40;;;;;;;17.42;11.75;;;;;;;;;;5073426;28;20036;-60
2023/07/10 12:37:09;;;;;;;17.48;12.23;;;;;;;;;;5072357;28;20029;-63
2023/07/10 12:39:34;;;;;;;;;;;;;;;;;;5072360;28;20392;-65
2023/07/10 12:42:01;;;;;;;17.70;11.40;;;;;;;;;;5073421;28;19908;-62
2023/07/10 12:44:31;;;;;;;17.17;11.48;;;;;;;;;;5072159;28;20453;-60
2023/07/10 12:47:04;;;;;;;18.55;12.23;;;;;;;;;;5069936;28;20541;-60
2023/07/10 12:49:31;;;;;;;19.05;11.60;;;;;;;;;;5069659;28;20058;-63
2023/07/10 12:51:58;;;;;;;18.60;12.27;;;;;;;;;;5073074;28;20028;-63
2023/07/10 12:54:29;;;;;;;17.75;11.85;;;;;;;;;;5072919;28;20109;-61
2023/07/10 12:56:55;;;;;;;18.98;12.65;;;;;;;;;;5065482;28;20393;-61
2023/07/10 12:59:24;;;;;;;17.80;12.20;;;;;;;;;;5073049;28;20044;-62
2023/07/10 13:02:02;;;;;;;16.83;12.27;;;;;;;;;;5065131;28;20044;-60
2023/07/10 13:04:31;;;;;;;15.60;11.95;;;;;;;;;;5072656;28;20021;-62
2023/07/10 13:07:12;;;;;;;17.27;12.52;;;;;;;;;;5073169;28;20025;-62
2023/07/10 13:09:39;;;;;;;17.55;11.95;;;;;;;;;;5073113;28;20427;-62
2023/07/10 13:12:06;;;;;;;17.13;12.35;;;;;;;;;;5073053;28;20503;-61
2023/07/10 13:14:34;;;;;;;17.23;12.45;;;;;;;;;;5072513;28;20112;-63
2023/07/10 13:17:00;;;;;;;17.45;12.10;;;;;;;;;;5071349;28;20527;-61
2023/07/10 13:19:28;;;;;;;16.70;11.75;;;;;;;;;;5072291;28;20029;-63
2023/07/10 13:21:54;;;;;;;18.93;12.50;;;;;;;;;;5071684;28;20086;-62
2023/07/10 13:24:20;;;;;;;17.20;12.50;;;;;;;;;;5072320;28;20020;-63
2023/07/10 13:26:47;;;;;;;17.98;12.88;;;;;;;;;;5072471;28;20089;-59
2023/07/10 13:29:14;;;;;;;17.33;12.80;;;;;;;;;;5072691;28;20060;-61
2023/07/10 13:31:41;;;;;;;18.10;13.10;;;;;;;;;;5072803;28;20527;-62
2023/07/10 13:34:08;;;;;;;16.10;12.43;;;;;;;;;;5072162;28;20270;-60
2023/07/10 13:36:34;;;;;;;16.25;12.95;;;;;;;;;;5072180;28;20028;-61
2023/07/10 13:39:00;;;;;;;18.65;13.50;;;;;;;;;;5070088;28;20104;-60
2023/07/10 13:41:28;;;;;;;17.90;13.30;;;;;;;;;;5062321;28;20120;-62
2023/07/10 13:43:54;;;;;;;17.48;12.63;;;;;;;;;;5063222;28;20024;-64
2023/07/10 13:46:30;;;;;;;17.70;13.02;;;;;;;;;;5059415;28;20033;-57
2023/07/10 13:49:07;;;;;;;18.67;13.45;;;;;;;;;;4711227;28;9999818;-58
2023/07/10 13:51:34;;;;;;;20.30;14.27;;;;;;;;;;5055245;28;20036;-59
2023/07/10 13:54:00;;;;;;;19.38;13.48;;;;;;;;;;5064709;28;20031;-59
2023/07/10 13:56:37;;;;;;;17.77;13.50;;;;;;;;;;5066158;28;20029;-58
2023/07/10 13:59:04;;;;;;;18.20;13.60;;;;;;;;;;5048282;28;20037;-55
2023/07/10 14:01:32;;;;;;;17.73;13.32;;;;;;;;;;5051154;28;20040;-58
2023/07/10 14:03:58;;;;;;;;;;;;;;;;;;5048900;28;20112;-58
2023/07/10 14:06:24;;;;;;;17.88;12.80;;;;;;;;;;5061278;28;19999;-59
2023/07/10 14:08:53;;;;;;;19.27;13.15;;;;;;;;;;5068580;28;20733;-58
2023/07/10 14:11:20;;;;;;;17.77;13.20;;;;;;;;;;5068509;28;20047;-59
2023/07/10 14:13:46;;;;;;;17.88;13.15;;;;;;;;;;5068224;28;20488;-59
2023/07/10 14:16:20;;;;;;;17.55;12.65;;;;;;;;;;5054856;28;20044;-57
2023/07/10 14:18:46;;;;;;;18.83;12.70;;;;;;;;;;5048502;28;20105;-57
2023/07/10 14:21:13;;;;;;;17.42;12.60;;;;;;;;;;5059034;28;20032;-57
2023/07/10 14:23:39;;;;;;;17.45;13.23;;;;;;;;;;5054266;28;20566;-58
2023/07/10 14:26:10;;;;;;;16.08;12.60;;;;;;;;;;5047999;28;20050;-59
2023/07/10 14:28:36;;;;;;;19.17;13.50;;;;;;;;;;5051255;28;20017;-57
2023/07/10 14:31:02;;;;;;;18.27;13.18;;;;;;;;;;5068493;28;20499;-59
2023/07/10 14:33:28;;;;;;;19.15;13.40;;;;;;;;;;5067023;28;20062;-57
2023/07/10 14:35:54;;;;;;;17.45;13.93;;;;;;;;;;5067825;28;20544;-59